sensor_id;sensor_type;location;lat;lon;timestamp;P1;durP1;ratioP1;P2;durP2;ratioP2
50531;SDS011;36483;37.396;-122.212;2022-08-07T00:01:17;5.43;;;1.83;;
50531;SDS011;36483;37.396;-122.212;2022-08-07T00:03:44;7.80;;;1.85;;
50531;SDS011;36483;37.396;-122.212;2022-08-07T00:06:10;3.92;;;1.85;;
50531;SDS011;36483;37.396;-122.212;2022-08-07T00:08:36;5.10;;;1.98;;
50531;SDS011;36483;37.396;-122.212;2022-08-07T00:11:03;5.95;;;1.70;;
50531;SDS011;36483;37.396;-122.212;2022-08-07T00:13:30;7.35;;;2.05;;
50531;SDS011;36483;37.396;-122.212;2022-08-07T00:15:57;3.70;;;1.52;;
50531;SDS011;36483;37.396;-122.212;2022-08-07T00:18:24;6.05;;;2.20;;
50531;SDS011;36483;37.396;-122.212;2022-08-07T00:20:53;5.05;;;2.00;;
50531;SDS011;36483;37.396;-122.212;2022-08-07T00:23:21;5.40;;;1.70;;
50531;SDS011;36483;37.396;-122.212;2022-08-07T00:25:47;4.80;;;1.60;;
50531;SDS011;36483;37.396;-122.212;2022-08-07T00:28:14;3.63;;;1.90;;
50531;SDS011;36483;37.396;-122.212;2022-08-07T00:30:40;5.15;;;2.00;;
50531;SDS011;36483;37.396;-122.212;2022-08-07T00:33:06;4.60;;;1.90;;
50531;SDS011;36483;37.396;-122.212;2022-08-07T00:35:33;5.20;;;1.63;;
50531;SDS011;36483;37.396;-122.212;2022-08-07T00:37:59;4.53;;;1.75;;
50531;SDS011;36483;37.396;-122.212;2022-08-07T00:40:26;6.90;;;1.67;;
50531;SDS011;36483;37.396;-122.212;2022-08-07T00:42:53;4.82;;;1.80;;
50531;SDS011;36483;37.396;-122.212;2022-08-07T00:45:19;5.15;;;1.67;;
50531;SDS011;36483;37.396;-122.212;2022-08-07T00:47:46;4.20;;;1.55;;
50531;SDS011;36483;37.396;-122.212;2022-08-07T00:50:12;5.70;;;1.70;;
50531;SDS011;36483;37.396;-122.212;2022-08-07T00:52:39;5.05;;;1.80;;
50531;SDS011;36483;37.396;-122.212;2022-08-07T00:55:05;6.50;;;2.10;;
50531;SDS011;36483;37.396;-122.212;2022-08-07T00:57:31;6.40;;;1.70;;
50531;SDS011;36483;37.396;-122.212;2022-08-07T00:59:57;5.88;;;1.60;;
50531;SDS011;36483;37.396;-122.212;2022-08-07T01:02:24;4.53;;;1.70;;
50531;SDS011;36483;37.396;-122.212;2022-08-07T01:04:51;4.60;;;1.80;;
50531;SDS011;36483;37.396;-122.212;2022-08-07T01:07:20;4.78;;;1.80;;
50531;SDS011;36483;37.396;-122.212;2022-08-07T01:09:47;6.35;;;1.80;;
50531;SDS011;36483;37.396;-122.212;2022-08-07T01:12:13;4.32;;;1.63;;
50531;SDS011;36483;37.396;-122.212;2022-08-07T01:14:41;5.28;;;1.85;;
50531;SDS011;36483;37.396;-122.212;2022-08-07T01:17:08;6.55;;;2.00;;
50531;SDS011;36483;37.396;-122.212;2022-08-07T01:19:34;5.55;;;1.88;;
50531;SDS011;36483;37.396;-122.212;2022-08-07T01:22:02;4.63;;;1.90;;
50531;SDS011;36483;37.396;-122.212;2022-08-07T01:24:28;4.57;;;1.73;;
50531;SDS011;36483;37.396;-122.212;2022-08-07T01:26:55;4.88;;;1.73;;
50531;SDS011;36483;37.396;-122.212;2022-08-07T01:29:22;6.45;;;2.03;;
50531;SDS011;36483;37.396;-122.212;2022-08-07T01:31:49;6.93;;;2.00;;
50531;SDS011;36483;37.396;-122.212;2022-08-07T01:34:15;8.15;;;2.20;;
50531;SDS011;36483;37.396;-122.212;2022-08-07T01:36:45;4.25;;;1.80;;
50531;SDS011;36483;37.396;-122.212;2022-08-07T01:39:13;4.68;;;1.73;;
50531;SDS011;36483;37.396;-122.212;2022-08-07T01:41:39;4.05;;;1.75;;
50531;SDS011;36483;37.396;-122.212;2022-08-07T01:44:08;4.50;;;1.75;;
50531;SDS011;36483;37.396;-122.212;2022-08-07T01:46:34;5.65;;;1.83;;
50531;SDS011;36483;37.396;-122.212;2022-08-07T01:49:01;4.78;;;2.15;;
50531;SDS011;36483;37.396;-122.212;2022-08-07T01:51:27;4.20;;;2.00;;
50531;SDS011;36483;37.396;-122.212;2022-08-07T01:53:57;4.88;;;1.80;;
50531;SDS011;36483;37.396;-122.212;2022-08-07T01:56:26;7.38;;;2.15;;
50531;SDS011;36483;37.396;-122.212;2022-08-07T01:58:58;3.80;;;1.90;;
50531;SDS011;36483;37.396;-122.212;2022-08-07T02:01:30;5.53;;;2.17;;
50531;SDS011;36483;37.396;-122.212;2022-08-07T02:04:02;7.47;;;1.88;;
50531;SDS011;36483;37.396;-122.212;2022-08-07T02:06:36;7.40;;;2.10;;
50531;SDS011;36483;37.396;-122.212;2022-08-07T02:09:04;6.78;;;2.13;;
50531;SDS011;36483;37.396;-122.212;2022-08-07T02:11:34;7.10;;;1.90;;
50531;SDS011;36483;37.396;-122.212;2022-08-07T02:14:02;4.93;;;1.90;;
50531;SDS011;36483;37.396;-122.212;2022-08-07T02:16:31;4.53;;;2.50;;
50531;SDS011;36483;37.396;-122.212;2022-08-07T02:18:59;6.38;;;2.28;;
50531;SDS011;36483;37.396;-122.212;2022-08-07T02:21:29;5.65;;;1.83;;
50531;SDS011;36483;37.396;-122.212;2022-08-07T02:23:56;6.00;;;1.88;;
50531;SDS011;36483;37.396;-122.212;2022-08-07T02:26:23;5.35;;;2.15;;
50531;SDS011;36483;37.396;-122.212;2022-08-07T02:28:50;6.30;;;2.33;;
50531;SDS011;36483;37.396;-122.212;2022-08-07T02:31:17;6.00;;;2.10;;
50531;SDS011;36483;37.396;-122.212;2022-08-07T02:33:44;7.05;;;2.30;;
50531;SDS011;36483;37.396;-122.212;2022-08-07T02:36:11;7.03;;;2.30;;
50531;SDS011;36483;37.396;-122.212;2022-08-07T02:38:39;7.50;;;2.40;;
50531;SDS011;36483;37.396;-122.212;2022-08-07T02:41:06;6.72;;;2.20;;
50531;SDS011;36483;37.396;-122.212;2022-08-07T02:43:32;4.47;;;1.90;;
50531;SDS011;36483;37.396;-122.212;2022-08-07T02:46:00;5.85;;;2.20;;
50531;SDS011;36483;37.396;-122.212;2022-08-07T02:48:26;6.97;;;2.45;;
50531;SDS011;36483;37.396;-122.212;2022-08-07T02:50:53;7.88;;;2.10;;
50531;SDS011;36483;37.396;-122.212;2022-08-07T02:53:23;6.40;;;1.90;;
50531;SDS011;36483;37.396;-122.212;2022-08-07T02:55:53;6.72;;;2.47;;
50531;SDS011;36483;37.396;-122.212;2022-08-07T02:58:21;8.88;;;1.88;;
50531;SDS011;36483;37.396;-122.212;2022-08-07T03:00:49;7.13;;;2.10;;
50531;SDS011;36483;37.396;-122.212;2022-08-07T03:03:16;6.03;;;2.15;;
50531;SDS011;36483;37.396;-122.212;2022-08-07T03:05:44;5.80;;;1.98;;
50531;SDS011;36483;37.396;-122.212;2022-08-07T03:08:10;7.75;;;2.17;;
50531;SDS011;36483;37.396;-122.212;2022-08-07T03:10:37;7.22;;;2.00;;
50531;SDS011;36483;37.396;-122.212;2022-08-07T03:13:04;7.40;;;2.42;;
50531;SDS011;36483;37.396;-122.212;2022-08-07T03:15:31;5.18;;;2.13;;
50531;SDS011;36483;37.396;-122.212;2022-08-07T03:17:57;5.30;;;1.90;;
50531;SDS011;36483;37.396;-122.212;2022-08-07T03:20:24;6.30;;;2.45;;
50531;SDS011;36483;37.396;-122.212;2022-08-07T03:22:51;6.93;;;2.85;;
50531;SDS011;36483;37.396;-122.212;2022-08-07T03:25:18;6.75;;;2.45;;
50531;SDS011;36483;37.396;-122.212;2022-08-07T03:27:45;8.07;;;2.45;;
50531;SDS011;36483;37.396;-122.212;2022-08-07T03:30:11;6.82;;;2.33;;
50531;SDS011;36483;37.396;-122.212;2022-08-07T03:32:39;6.20;;;2.22;;
50531;SDS011;36483;37.396;-122.212;2022-08-07T03:35:12;6.25;;;2.13;;
50531;SDS011;36483;37.396;-122.212;2022-08-07T03:37:42;6.03;;;2.17;;
50531;SDS011;36483;37.396;-122.212;2022-08-07T03:40:09;5.57;;;2.30;;
50531;SDS011;36483;37.396;-122.212;2022-08-07T03:42:35;9.25;;;2.28;;
50531;SDS011;36483;37.396;-122.212;2022-08-07T03:45:03;6.25;;;2.38;;
50531;SDS011;36483;37.396;-122.212;2022-08-07T03:47:29;11.70;;;2.20;;
50531;SDS011;36483;37.396;-122.212;2022-08-07T03:49:56;5.78;;;2.35;;
50531;SDS011;36483;37.396;-122.212;2022-08-07T03:52:22;6.82;;;2.28;;
50531;SDS011;36483;37.396;-122.212;2022-08-07T03:54:51;7.75;;;2.58;;
50531;SDS011;36483;37.396;-122.212;2022-08-07T03:57:18;6.43;;;2.55;;
50531;SDS011;36483;37.396;-122.212;2022-08-07T03:59:45;6.72;;;2.30;;
50531;SDS011;36483;37.396;-122.212;2022-08-07T04:02:11;5.85;;;2.58;;
50531;SDS011;36483;37.396;-122.212;2022-08-07T04:04:40;9.10;;;2.42;;
50531;SDS011;36483;37.396;-122.212;2022-08-07T04:07:07;7.50;;;2.40;;
50531;SDS011;36483;37.396;-122.212;2022-08-07T04:09:34;7.40;;;2.38;;
50531;SDS011;36483;37.396;-122.212;2022-08-07T04:12:00;7.53;;;2.20;;
50531;SDS011;36483;37.396;-122.212;2022-08-07T04:14:26;8.30;;;2.40;;
50531;SDS011;36483;37.396;-122.212;2022-08-07T04:16:53;8.82;;;2.75;;
50531;SDS011;36483;37.396;-122.212;2022-08-07T04:19:19;7.75;;;2.20;;
50531;SDS011;36483;37.396;-122.212;2022-08-07T04:21:45;8.48;;;2.45;;
50531;SDS011;36483;37.396;-122.212;2022-08-07T04:24:11;8.15;;;2.33;;
50531;SDS011;36483;37.396;-122.212;2022-08-07T04:26:38;5.25;;;2.15;;
50531;SDS011;36483;37.396;-122.212;2022-08-07T04:29:05;6.68;;;2.42;;
50531;SDS011;36483;37.396;-122.212;2022-08-07T04:31:35;7.82;;;2.40;;
50531;SDS011;36483;37.396;-122.212;2022-08-07T04:34:03;6.45;;;2.35;;
50531;SDS011;36483;37.396;-122.212;2022-08-07T04:36:30;7.00;;;2.47;;
50531;SDS011;36483;37.396;-122.212;2022-08-07T04:38:56;6.60;;;2.67;;
50531;SDS011;36483;37.396;-122.212;2022-08-07T04:41:22;6.75;;;2.75;;
50531;SDS011;36483;37.396;-122.212;2022-08-07T04:43:48;7.30;;;2.63;;
50531;SDS011;36483;37.396;-122.212;2022-08-07T04:56:36;8.27;;;2.28;;
50531;SDS011;36483;37.396;-122.212;2022-08-07T04:59:10;7.47;;;2.50;;
50531;SDS011;36483;37.396;-122.212;2022-08-07T05:04:24;7.70;;;2.58;;
50531;SDS011;36483;37.396;-122.212;2022-08-07T05:12:37;6.18;;;2.60;;
50531;SDS011;36483;37.396;-122.212;2022-08-07T05:17:45;6.63;;;2.60;;
50531;SDS011;36483;37.396;-122.212;2022-08-07T05:20:15;6.88;;;2.65;;
50531;SDS011;36483;37.396;-122.212;2022-08-07T05:22:43;7.25;;;2.40;;
50531;SDS011;36483;37.396;-122.212;2022-08-07T05:25:11;6.30;;;2.50;;
50531;SDS011;36483;37.396;-122.212;2022-08-07T05:27:40;8.00;;;2.35;;
50531;SDS011;36483;37.396;-122.212;2022-08-07T05:30:07;7.43;;;2.60;;
50531;SDS011;36483;37.396;-122.212;2022-08-07T05:32:34;5.25;;;2.40;;
50531;SDS011;36483;37.396;-122.212;2022-08-07T05:35:02;5.32;;;2.30;;
50531;SDS011;36483;37.396;-122.212;2022-08-07T05:37:28;5.50;;;2.42;;
50531;SDS011;36483;37.396;-122.212;2022-08-07T05:39:55;5.00;;;2.22;;
50531;SDS011;36483;37.396;-122.212;2022-08-07T05:42:21;7.68;;;2.47;;
50531;SDS011;36483;37.396;-122.212;2022-08-07T05:44:48;7.50;;;2.60;;
50531;SDS011;36483;37.396;-122.212;2022-08-07T05:47:14;7.93;;;2.70;;
50531;SDS011;36483;37.396;-122.212;2022-08-07T05:49:46;8.25;;;2.60;;
50531;SDS011;36483;37.396;-122.212;2022-08-07T05:52:13;7.38;;;2.80;;
50531;SDS011;36483;37.396;-122.212;2022-08-07T05:54:39;5.10;;;2.40;;
50531;SDS011;36483;37.396;-122.212;2022-08-07T05:57:06;7.18;;;2.72;;
50531;SDS011;36483;37.396;-122.212;2022-08-07T05:59:35;9.10;;;2.40;;
50531;SDS011;36483;37.396;-122.212;2022-08-07T06:02:03;6.68;;;2.45;;
50531;SDS011;36483;37.396;-122.212;2022-08-07T06:04:30;9.02;;;2.55;;
50531;SDS011;36483;37.396;-122.212;2022-08-07T06:07:00;6.45;;;2.40;;
50531;SDS011;36483;37.396;-122.212;2022-08-07T06:09:33;5.63;;;2.70;;
50531;SDS011;36483;37.396;-122.212;2022-08-07T06:11:59;5.22;;;2.45;;
50531;SDS011;36483;37.396;-122.212;2022-08-07T06:14:25;6.68;;;2.38;;
50531;SDS011;36483;37.396;-122.212;2022-08-07T06:16:52;10.10;;;2.72;;
50531;SDS011;36483;37.396;-122.212;2022-08-07T06:19:18;6.85;;;2.72;;
50531;SDS011;36483;37.396;-122.212;2022-08-07T06:21:45;7.40;;;2.63;;
50531;SDS011;36483;37.396;-122.212;2022-08-07T06:24:11;6.78;;;2.60;;
50531;SDS011;36483;37.396;-122.212;2022-08-07T06:26:41;5.63;;;2.40;;
50531;SDS011;36483;37.396;-122.212;2022-08-07T06:29:07;5.82;;;2.83;;
50531;SDS011;36483;37.396;-122.212;2022-08-07T06:31:34;5.75;;;2.88;;
50531;SDS011;36483;37.396;-122.212;2022-08-07T06:34:00;7.50;;;2.83;;
50531;SDS011;36483;37.396;-122.212;2022-08-07T06:36:26;7.40;;;2.80;;
50531;SDS011;36483;37.396;-122.212;2022-08-07T06:38:53;7.70;;;2.47;;
50531;SDS011;36483;37.396;-122.212;2022-08-07T06:41:27;6.93;;;2.75;;
50531;SDS011;36483;37.396;-122.212;2022-08-07T06:43:56;4.82;;;2.40;;
50531;SDS011;36483;37.396;-122.212;2022-08-07T06:46:23;7.72;;;2.83;;
50531;SDS011;36483;37.396;-122.212;2022-08-07T06:48:49;6.80;;;2.50;;
50531;SDS011;36483;37.396;-122.212;2022-08-07T06:51:22;9.25;;;2.75;;
50531;SDS011;36483;37.396;-122.212;2022-08-07T06:53:50;7.28;;;2.70;;
50531;SDS011;36483;37.396;-122.212;2022-08-07T06:56:17;6.22;;;2.50;;
50531;SDS011;36483;37.396;-122.212;2022-08-07T06:59:07;7.65;;;2.50;;
50531;SDS011;36483;37.396;-122.212;2022-08-07T07:01:35;6.68;;;2.90;;
50531;SDS011;36483;37.396;-122.212;2022-08-07T07:04:03;5.93;;;2.60;;
50531;SDS011;36483;37.396;-122.212;2022-08-07T07:06:30;7.20;;;2.85;;
50531;SDS011;36483;37.396;-122.212;2022-08-07T07:12:09;8.30;;;3.00;;
50531;SDS011;36483;37.396;-122.212;2022-08-07T07:14:44;6.88;;;2.50;;
50531;SDS011;36483;37.396;-122.212;2022-08-07T07:20:12;8.48;;;2.70;;
50531;SDS011;36483;37.396;-122.212;2022-08-07T07:22:41;7.28;;;2.55;;
50531;SDS011;36483;37.396;-122.212;2022-08-07T07:25:08;7.13;;;2.72;;
50531;SDS011;36483;37.396;-122.212;2022-08-07T07:27:39;6.90;;;2.72;;
50531;SDS011;36483;37.396;-122.212;2022-08-07T07:30:09;6.93;;;2.72;;
50531;SDS011;36483;37.396;-122.212;2022-08-07T07:32:36;4.93;;;2.60;;
50531;SDS011;36483;37.396;-122.212;2022-08-07T07:35:04;8.95;;;2.90;;
50531;SDS011;36483;37.396;-122.212;2022-08-07T07:37:32;7.47;;;2.75;;
50531;SDS011;36483;37.396;-122.212;2022-08-07T07:39:59;4.40;;;2.40;;
50531;SDS011;36483;37.396;-122.212;2022-08-07T07:42:28;4.80;;;2.33;;
50531;SDS011;36483;37.396;-122.212;2022-08-07T07:44:55;5.72;;;2.60;;
50531;SDS011;36483;37.396;-122.212;2022-08-07T07:47:22;6.57;;;2.90;;
50531;SDS011;36483;37.396;-122.212;2022-08-07T07:49:50;7.45;;;3.00;;
50531;SDS011;36483;37.396;-122.212;2022-08-07T07:52:17;7.70;;;2.50;;
50531;SDS011;36483;37.396;-122.212;2022-08-07T07:54:45;4.07;;;2.72;;
50531;SDS011;36483;37.396;-122.212;2022-08-07T07:57:13;6.35;;;3.08;;
50531;SDS011;36483;37.396;-122.212;2022-08-07T07:59:39;6.90;;;2.60;;
50531;SDS011;36483;37.396;-122.212;2022-08-07T08:02:06;7.70;;;2.72;;
50531;SDS011;36483;37.396;-122.212;2022-08-07T08:04:34;7.20;;;2.60;;
50531;SDS011;36483;37.396;-122.212;2022-08-07T08:07:02;7.57;;;2.75;;
50531;SDS011;36483;37.396;-122.212;2022-08-07T08:09:29;8.52;;;3.08;;
50531;SDS011;36483;37.396;-122.212;2022-08-07T08:11:56;8.82;;;2.80;;
50531;SDS011;36483;37.396;-122.212;2022-08-07T08:14:23;6.32;;;2.55;;
50531;SDS011;36483;37.396;-122.212;2022-08-07T08:16:49;7.38;;;2.85;;
50531;SDS011;36483;37.396;-122.212;2022-08-07T08:19:16;6.90;;;2.40;;
50531;SDS011;36483;37.396;-122.212;2022-08-07T08:21:47;5.05;;;2.45;;
50531;SDS011;36483;37.396;-122.212;2022-08-07T08:24:35;3.63;;;2.25;;
50531;SDS011;36483;37.396;-122.212;2022-08-07T08:27:25;8.75;;;2.83;;
50531;SDS011;36483;37.396;-122.212;2022-08-07T08:30:01;6.07;;;3.05;;
50531;SDS011;36483;37.396;-122.212;2022-08-07T08:32:33;9.45;;;2.83;;
50531;SDS011;36483;37.396;-122.212;2022-08-07T08:35:02;6.53;;;2.45;;
50531;SDS011;36483;37.396;-122.212;2022-08-07T08:37:29;5.50;;;2.35;;
50531;SDS011;36483;37.396;-122.212;2022-08-07T08:39:59;5.15;;;2.67;;
50531;SDS011;36483;37.396;-122.212;2022-08-07T08:42:27;9.18;;;2.75;;
50531;SDS011;36483;37.396;-122.212;2022-08-07T08:51:05;7.75;;;2.97;;
50531;SDS011;36483;37.396;-122.212;2022-08-07T08:53:43;7.25;;;3.30;;
50531;SDS011;36483;37.396;-122.212;2022-08-07T08:56:14;6.03;;;2.40;;
50531;SDS011;36483;37.396;-122.212;2022-08-07T08:58:52;8.70;;;2.90;;
50531;SDS011;36483;37.396;-122.212;2022-08-07T09:04:13;6.03;;;3.15;;
50531;SDS011;36483;37.396;-122.212;2022-08-07T09:09:30;4.97;;;2.40;;
50531;SDS011;36483;37.396;-122.212;2022-08-07T09:17:05;6.18;;;2.63;;
50531;SDS011;36483;37.396;-122.212;2022-08-07T09:22:28;6.70;;;2.63;;
50531;SDS011;36483;37.396;-122.212;2022-08-07T09:30:50;6.72;;;2.65;;
50531;SDS011;36483;37.396;-122.212;2022-08-07T09:33:34;6.40;;;2.58;;
50531;SDS011;36483;37.396;-122.212;2022-08-07T09:36:10;5.28;;;2.55;;
50531;SDS011;36483;37.396;-122.212;2022-08-07T09:44:40;7.32;;;2.90;;
50531;SDS011;36483;37.396;-122.212;2022-08-07T09:53:01;6.45;;;2.83;;
50531;SDS011;36483;37.396;-122.212;2022-08-07T10:07:25;4.97;;;2.40;;
50531;SDS011;36483;37.396;-122.212;2022-08-07T10:13:00;10.15;;;3.30;;
50531;SDS011;36483;37.396;-122.212;2022-08-07T10:18:50;8.13;;;2.72;;
50531;SDS011;36483;37.396;-122.212;2022-08-07T10:32:36;8.35;;;2.80;;
50531;SDS011;36483;37.396;-122.212;2022-08-07T10:37:42;6.50;;;2.85;;
50531;SDS011;36483;37.396;-122.212;2022-08-07T10:40:18;8.07;;;2.60;;
50531;SDS011;36483;37.396;-122.212;2022-08-07T10:45:54;9.68;;;2.90;;
50531;SDS011;36483;37.396;-122.212;2022-08-07T10:51:21;7.28;;;2.80;;
50531;SDS011;36483;37.396;-122.212;2022-08-07T10:56:42;8.52;;;2.95;;
50531;SDS011;36483;37.396;-122.212;2022-08-07T11:02:15;7.18;;;3.05;;
50531;SDS011;36483;37.396;-122.212;2022-08-07T11:11:07;6.87;;;3.00;;
50531;SDS011;36483;37.396;-122.212;2022-08-07T11:13:43;5.97;;;2.53;;
50531;SDS011;36483;37.396;-122.212;2022-08-07T11:36:05;5.90;;;2.58;;
50531;SDS011;36483;37.396;-122.212;2022-08-07T11:38:41;8.48;;;2.97;;
50531;SDS011;36483;37.396;-122.212;2022-08-07T11:41:38;7.22;;;3.15;;
50531;SDS011;36483;37.396;-122.212;2022-08-07T11:44:17;4.22;;;2.55;;
50531;SDS011;36483;37.396;-122.212;2022-08-07T11:55:03;6.80;;;2.73;;
50531;SDS011;36483;37.396;-122.212;2022-08-07T12:06:20;4.32;;;2.25;;
50531;SDS011;36483;37.396;-122.212;2022-08-07T12:08:57;6.95;;;2.65;;
50531;SDS011;36483;37.396;-122.212;2022-08-07T12:11:31;6.30;;;2.65;;
50531;SDS011;36483;37.396;-122.212;2022-08-07T12:22:47;6.80;;;2.83;;
50531;SDS011;36483;37.396;-122.212;2022-08-07T12:25:51;5.18;;;2.47;;
50531;SDS011;36483;37.396;-122.212;2022-08-07T12:30:58;4.68;;;2.40;;
50531;SDS011;36483;37.396;-122.212;2022-08-07T12:33:28;7.70;;;2.90;;
50531;SDS011;36483;37.396;-122.212;2022-08-07T12:35:59;5.00;;;2.45;;
50531;SDS011;36483;37.396;-122.212;2022-08-07T12:38:26;5.00;;;2.60;;
50531;SDS011;36483;37.396;-122.212;2022-08-07T12:40:53;7.00;;;2.58;;
50531;SDS011;36483;37.396;-122.212;2022-08-07T12:43:20;7.70;;;2.88;;
50531;SDS011;36483;37.396;-122.212;2022-08-07T12:45:53;5.97;;;2.45;;
50531;SDS011;36483;37.396;-122.212;2022-08-07T12:48:44;5.80;;;2.70;;
50531;SDS011;36483;37.396;-122.212;2022-08-07T12:51:18;5.22;;;2.40;;
50531;SDS011;36483;37.396;-122.212;2022-08-07T12:54:05;7.17;;;2.47;;
50531;SDS011;36483;37.396;-122.212;2022-08-07T12:56:49;5.18;;;2.58;;
50531;SDS011;36483;37.396;-122.212;2022-08-07T12:59:17;6.35;;;2.60;;
50531;SDS011;36483;37.396;-122.212;2022-08-07T13:05:08;5.43;;;2.65;;
50531;SDS011;36483;37.396;-122.212;2022-08-07T13:13:00;6.85;;;2.63;;
50531;SDS011;36483;37.396;-122.212;2022-08-07T13:21:26;5.53;;;2.22;;
50531;SDS011;36483;37.396;-122.212;2022-08-07T13:23:59;4.43;;;2.72;;
50531;SDS011;36483;37.396;-122.212;2022-08-07T13:31:53;6.25;;;2.95;;
50531;SDS011;36483;37.396;-122.212;2022-08-07T13:34:28;6.28;;;2.45;;
50531;SDS011;36483;37.396;-122.212;2022-08-07T13:37:01;7.45;;;2.40;;
50531;SDS011;36483;37.396;-122.212;2022-08-07T13:39:34;6.70;;;2.63;;
50531;SDS011;36483;37.396;-122.212;2022-08-07T13:42:05;7.72;;;2.88;;
50531;SDS011;36483;37.396;-122.212;2022-08-07T13:44:35;4.68;;;2.60;;
50531;SDS011;36483;37.396;-122.212;2022-08-07T13:47:04;5.00;;;2.40;;
50531;SDS011;36483;37.396;-122.212;2022-08-07T13:49:36;5.75;;;2.90;;
50531;SDS011;36483;37.396;-122.212;2022-08-07T13:52:05;7.15;;;3.10;;
50531;SDS011;36483;37.396;-122.212;2022-08-07T13:54:31;6.72;;;2.90;;
50531;SDS011;36483;37.396;-122.212;2022-08-07T13:56:59;6.22;;;2.78;;
50531;SDS011;36483;37.396;-122.212;2022-08-07T13:59:31;8.05;;;2.80;;
50531;SDS011;36483;37.396;-122.212;2022-08-07T14:02:03;6.28;;;2.70;;
50531;SDS011;36483;37.396;-122.212;2022-08-07T14:04:46;6.32;;;2.88;;
50531;SDS011;36483;37.396;-122.212;2022-08-07T14:07:20;4.90;;;2.40;;
50531;SDS011;36483;37.396;-122.212;2022-08-07T14:09:51;6.35;;;2.58;;
50531;SDS011;36483;37.396;-122.212;2022-08-07T14:12:27;7.22;;;2.80;;
50531;SDS011;36483;37.396;-122.212;2022-08-07T14:15:28;4.63;;;2.28;;
50531;SDS011;36483;37.396;-122.212;2022-08-07T14:18:15;6.55;;;2.40;;
50531;SDS011;36483;37.396;-122.212;2022-08-07T14:20:46;4.97;;;2.60;;
50531;SDS011;36483;37.396;-122.212;2022-08-07T14:23:20;5.30;;;2.63;;
50531;SDS011;36483;37.396;-122.212;2022-08-07T14:25:53;7.82;;;2.40;;
50531;SDS011;36483;37.396;-122.212;2022-08-07T14:28:22;5.70;;;2.70;;
50531;SDS011;36483;37.396;-122.212;2022-08-07T14:30:50;5.30;;;2.20;;
50531;SDS011;36483;37.396;-122.212;2022-08-07T14:33:16;7.45;;;2.30;;
50531;SDS011;36483;37.396;-122.212;2022-08-07T14:35:43;4.75;;;2.40;;
50531;SDS011;36483;37.396;-122.212;2022-08-07T14:38:10;5.78;;;2.35;;
50531;SDS011;36483;37.396;-122.212;2022-08-07T14:40:37;5.28;;;2.20;;
50531;SDS011;36483;37.396;-122.212;2022-08-07T14:43:05;5.25;;;2.75;;
50531;SDS011;36483;37.396;-122.212;2022-08-07T14:45:39;4.43;;;2.20;;
50531;SDS011;36483;37.396;-122.212;2022-08-07T14:48:11;7.03;;;2.63;;
50531;SDS011;36483;37.396;-122.212;2022-08-07T14:50:46;5.60;;;2.10;;
50531;SDS011;36483;37.396;-122.212;2022-08-07T14:53:15;8.68;;;2.60;;
50531;SDS011;36483;37.396;-122.212;2022-08-07T14:55:42;6.15;;;2.25;;
50531;SDS011;36483;37.396;-122.212;2022-08-07T14:58:10;7.05;;;2.33;;
50531;SDS011;36483;37.396;-122.212;2022-08-07T15:00:38;4.57;;;2.10;;
50531;SDS011;36483;37.396;-122.212;2022-08-07T15:03:07;5.28;;;2.42;;
50531;SDS011;36483;37.396;-122.212;2022-08-07T15:05:34;6.40;;;2.50;;
50531;SDS011;36483;37.396;-122.212;2022-08-07T15:08:02;6.97;;;2.55;;
50531;SDS011;36483;37.396;-122.212;2022-08-07T15:10:29;4.53;;;2.40;;
50531;SDS011;36483;37.396;-122.212;2022-08-07T15:12:58;10.52;;;2.80;;
50531;SDS011;36483;37.396;-122.212;2022-08-07T15:15:33;9.52;;;3.20;;
50531;SDS011;36483;37.396;-122.212;2022-08-07T15:18:03;9.75;;;2.92;;
50531;SDS011;36483;37.396;-122.212;2022-08-07T15:20:35;6.30;;;3.15;;
50531;SDS011;36483;37.396;-122.212;2022-08-07T15:23:07;10.20;;;3.50;;
50531;SDS011;36483;37.396;-122.212;2022-08-07T15:25:37;11.50;;;3.03;;
50531;SDS011;36483;37.396;-122.212;2022-08-07T15:28:05;9.50;;;3.20;;
50531;SDS011;36483;37.396;-122.212;2022-08-07T15:30:33;8.65;;;3.42;;
50531;SDS011;36483;37.396;-122.212;2022-08-07T15:33:02;7.70;;;2.78;;
50531;SDS011;36483;37.396;-122.212;2022-08-07T15:35:29;10.68;;;3.42;;
50531;SDS011;36483;37.396;-122.212;2022-08-07T15:37:58;7.30;;;3.42;;
50531;SDS011;36483;37.396;-122.212;2022-08-07T15:40:27;6.93;;;3.45;;
50531;SDS011;36483;37.396;-122.212;2022-08-07T15:45:36;7.60;;;3.60;;
50531;SDS011;36483;37.396;-122.212;2022-08-07T15:50:55;7.47;;;4.20;;
50531;SDS011;36483;37.396;-122.212;2022-08-07T15:53:26;9.90;;;4.55;;
50531;SDS011;36483;37.396;-122.212;2022-08-07T15:55:57;8.77;;;3.75;;
50531;SDS011;36483;37.396;-122.212;2022-08-07T15:59:00;11.43;;;4.00;;
50531;SDS011;36483;37.396;-122.212;2022-08-07T16:01:22;8.90;;;4.45;;
50531;SDS011;36483;37.396;-122.212;2022-08-07T16:03:55;7.45;;;3.50;;
50531;SDS011;36483;37.396;-122.212;2022-08-07T16:06:27;9.20;;;3.40;;
50531;SDS011;36483;37.396;-122.212;2022-08-07T16:09:05;8.25;;;3.65;;
50531;SDS011;36483;37.396;-122.212;2022-08-07T16:14:44;10.85;;;4.13;;
50531;SDS011;36483;37.396;-122.212;2022-08-07T16:37:31;9.45;;;3.72;;
50531;SDS011;36483;37.396;-122.212;2022-08-07T16:51:15;7.47;;;3.70;;
50531;SDS011;36483;37.396;-122.212;2022-08-07T16:56:50;8.82;;;3.88;;
50531;SDS011;36483;37.396;-122.212;2022-08-07T17:04:48;10.55;;;4.35;;
50531;SDS011;36483;37.396;-122.212;2022-08-07T17:12:58;9.68;;;4.13;;
50531;SDS011;36483;37.396;-122.212;2022-08-07T17:15:40;9.48;;;4.13;;
50531;SDS011;36483;37.396;-122.212;2022-08-07T17:21:23;9.25;;;2.97;;
50531;SDS011;36483;37.396;-122.212;2022-08-07T17:34:47;5.28;;;2.40;;
50531;SDS011;36483;37.396;-122.212;2022-08-07T17:37:19;5.30;;;2.03;;
50531;SDS011;36483;37.396;-122.212;2022-08-07T17:40:02;4.57;;;2.30;;
50531;SDS011;36483;37.396;-122.212;2022-08-07T17:42:53;5.72;;;2.42;;
50531;SDS011;36483;37.396;-122.212;2022-08-07T17:45:31;6.28;;;2.22;;
50531;SDS011;36483;37.396;-122.212;2022-08-07T17:48:05;6.90;;;1.80;;
50531;SDS011;36483;37.396;-122.212;2022-08-07T17:53:24;6.75;;;2.13;;
50531;SDS011;36483;37.396;-122.212;2022-08-07T17:56:20;8.32;;;2.08;;
50531;SDS011;36483;37.396;-122.212;2022-08-07T18:01:15;6.05;;;2.10;;
50531;SDS011;36483;37.396;-122.212;2022-08-07T18:06:36;4.45;;;1.70;;
50531;SDS011;36483;37.396;-122.212;2022-08-07T18:09:06;3.83;;;1.85;;
50531;SDS011;36483;37.396;-122.212;2022-08-07T18:11:41;5.32;;;1.65;;
50531;SDS011;36483;37.396;-122.212;2022-08-07T18:14:11;4.70;;;2.00;;
50531;SDS011;36483;37.396;-122.212;2022-08-07T18:20:26;4.10;;;1.60;;
50531;SDS011;36483;37.396;-122.212;2022-08-07T18:22:57;4.82;;;2.00;;
50531;SDS011;36483;37.396;-122.212;2022-08-07T18:25:30;3.80;;;1.75;;
50531;SDS011;36483;37.396;-122.212;2022-08-07T18:30:48;3.70;;;1.40;;
50531;SDS011;36483;37.396;-122.212;2022-08-07T18:43:56;3.40;;;1.10;;
50531;SDS011;36483;37.396;-122.212;2022-08-07T18:46:35;3.13;;;1.30;;
50531;SDS011;36483;37.396;-122.212;2022-08-07T18:51:50;4.57;;;1.50;;
50531;SDS011;36483;37.396;-122.212;2022-08-07T18:57:08;4.10;;;1.40;;
50531;SDS011;36483;37.396;-122.212;2022-08-07T19:05:35;4.22;;;1.20;;
50531;SDS011;36483;37.396;-122.212;2022-08-07T19:08:09;4.78;;;1.50;;
50531;SDS011;36483;37.396;-122.212;2022-08-07T19:10:47;3.42;;;1.10;;
50531;SDS011;36483;37.396;-122.212;2022-08-07T19:13:54;2.17;;;1.20;;